createdAt,value
2019-06-01T00:02:03.999Z,3.23
2019-06-01T00:04:34.678Z,3.00
2019-06-01T00:07:04.802Z,3.07
2019-06-01T00:09:35.244Z,2.87
2019-06-01T00:12:05.525Z,3.20
2019-06-01T00:14:35.739Z,2.90
2019-06-01T00:17:06.537Z,3.17
2019-06-01T00:19:36.709Z,3.37
2019-06-01T00:22:06.950Z,3.07
2019-06-01T00:24:37.138Z,3.23
2019-06-01T00:27:07.525Z,3.20
2019-06-01T00:29:38.151Z,2.83
2019-06-01T00:32:08.852Z,2.97
2019-06-01T00:34:39.413Z,3.30
2019-06-01T00:37:09.626Z,3.20
2019-06-01T00:39:40.326Z,3.20
2019-06-01T00:42:11.709Z,3.07
2019-06-01T00:44:42.159Z,3.37
2019-06-01T00:47:12.491Z,3.10
2019-06-01T00:49:43.074Z,3.43
2019-06-01T00:52:13.599Z,2.80
2019-06-01T00:54:43.791Z,2.70
2019-06-01T00:57:14.456Z,2.93
2019-06-01T00:59:45.897Z,2.97
2019-06-01T01:02:16.508Z,2.97
2019-06-01T01:04:46.682Z,3.60
2019-06-01T01:07:16.882Z,3.23
2019-06-01T01:09:47.408Z,3.53
2019-06-01T01:12:19.864Z,3.60
2019-06-01T01:14:51.296Z,3.10
2019-06-01T01:17:21.678Z,3.50
2019-06-01T01:19:51.996Z,3.50
2019-06-01T01:22:22.267Z,3.73
2019-06-01T01:24:52.576Z,3.67
2019-06-01T01:27:24.212Z,4.03
2019-06-01T01:29:55.025Z,3.77
2019-06-01T01:32:25.256Z,3.87
2019-06-01T01:34:55.809Z,3.80
2019-06-01T01:37:26.035Z,4.07
2019-06-01T01:39:56.330Z,3.87
2019-06-01T01:42:26.565Z,4.17
2019-06-01T01:44:58.646Z,3.83
2019-06-01T01:47:28.980Z,3.80
2019-06-01T01:49:59.478Z,4.73
2019-06-01T01:52:30.022Z,4.70
2019-06-01T01:55:00.240Z,4.10
2019-06-01T01:57:30.458Z,4.77
2019-06-01T02:00:01.867Z,4.37
2019-06-01T02:02:34.076Z,4.60
2019-06-01T02:05:04.439Z,4.80
2019-06-01T02:07:34.766Z,4.67
2019-06-01T02:10:05.943Z,4.70
2019-06-01T02:12:36.111Z,5.17
2019-06-01T02:15:07.311Z,5.30
2019-06-01T02:17:37.605Z,5.60
2019-06-01T02:20:08.018Z,5.03
2019-06-01T02:22:38.248Z,5.20
2019-06-01T02:25:08.741Z,5.97
2019-06-01T02:27:38.998Z,5.20
2019-06-01T02:30:09.377Z,5.67
2019-06-01T02:32:39.658Z,5.57
2019-06-01T02:35:10.218Z,5.87
2019-06-01T02:37:40.441Z,4.90
2019-06-01T02:40:11.029Z,5.97
2019-06-01T02:42:41.714Z,5.83
2019-06-01T02:45:14.847Z,5.60
2019-06-01T02:47:45.160Z,6.00
2019-06-01T02:50:16.111Z,6.37
2019-06-01T02:52:46.312Z,6.30
2019-06-01T02:55:19.085Z,5.63
2019-06-01T02:57:49.256Z,6.03
2019-06-01T03:00:29.503Z,6.33
2019-06-01T03:03:00.724Z,5.43
2019-06-01T03:05:31.144Z,6.00
2019-06-01T03:08:01.929Z,6.10
2019-06-01T03:10:32.531Z,6.03
2019-06-01T03:13:04.192Z,5.80
2019-06-01T03:15:36.200Z,6.37
2019-06-01T03:18:07.757Z,5.90
2019-06-01T03:20:39.900Z,5.67
2019-06-01T03:23:12.800Z,6.07
2019-06-01T03:25:44.509Z,6.77
2019-06-01T03:28:17.729Z,6.57
2019-06-01T03:30:48.009Z,6.93
2019-06-01T03:33:18.217Z,7.17
2019-06-01T03:35:48.873Z,6.73
2019-06-01T03:38:19.155Z,6.87
2019-06-01T03:40:49.334Z,5.73
2019-06-01T03:43:21.330Z,6.57
2019-06-01T03:45:51.889Z,7.20
2019-06-01T03:48:22.146Z,6.90
2019-06-01T03:50:52.369Z,6.47
2019-06-01T03:53:22.593Z,7.20
2019-06-01T03:55:52.730Z,6.97
2019-06-01T03:58:23.051Z,6.27
2019-06-01T04:00:53.237Z,7.00
2019-06-01T04:03:23.500Z,7.10
2019-06-01T04:05:54.020Z,6.80
2019-06-01T04:08:24.572Z,7.40
2019-06-01T04:10:54.812Z,7.53
2019-06-01T04:13:25.181Z,7.23
2019-06-01T04:15:55.416Z,7.70
2019-06-01T04:18:25.667Z,6.83
2019-06-01T04:20:55.912Z,6.80
2019-06-01T04:23:26.060Z,7.93
2019-06-01T04:25:56.270Z,7.53
2019-06-01T04:28:26.856Z,7.23
2019-06-01T04:30:57.050Z,6.90
2019-06-01T04:33:27.282Z,7.63
2019-06-01T04:35:57.430Z,8.00
2019-06-01T04:38:27.666Z,8.07
2019-06-01T04:40:57.945Z,8.20
2019-06-01T04:43:31.002Z,8.20
2019-06-01T04:46:01.172Z,7.37
2019-06-01T04:48:31.696Z,7.30
2019-06-01T04:51:03.070Z,7.23
2019-06-01T04:53:33.665Z,7.30
2019-06-01T04:56:04.782Z,7.40
2019-06-01T04:58:35.179Z,7.53
2019-06-01T05:01:05.476Z,7.40
2019-06-01T05:03:35.688Z,7.27
2019-06-01T05:06:07.072Z,7.23
2019-06-01T05:08:37.498Z,7.20
2019-06-01T05:11:08.978Z,7.27
2019-06-01T05:13:40.480Z,6.93
2019-06-01T05:16:12.950Z,7.23
2019-06-01T05:18:42.934Z,7.10
2019-06-01T05:21:15.143Z,6.67
2019-06-01T05:23:45.971Z,6.27
2019-06-01T05:26:17.159Z,6.90
2019-06-01T05:28:47.532Z,6.27
2019-06-01T05:31:24.306Z,6.33
2019-06-01T05:33:50.051Z,6.60
2019-06-01T05:36:20.324Z,6.20
2019-06-01T05:38:50.538Z,6.50
2019-06-01T05:41:21.452Z,6.10
2019-06-01T05:43:51.636Z,5.47
2019-06-01T05:46:23.362Z,6.63
2019-06-01T05:48:53.594Z,5.80
2019-06-01T05:51:23.863Z,6.00
2019-06-01T05:53:54.475Z,6.43
2019-06-01T05:56:24.994Z,6.30
2019-06-01T05:58:55.288Z,6.77
2019-06-01T06:01:25.467Z,6.07
2019-06-01T06:03:55.785Z,6.73
2019-06-01T06:06:26.436Z,6.63
2019-06-01T06:08:57.145Z,6.53
2019-06-01T06:11:27.339Z,6.23
2019-06-01T06:13:57.554Z,6.73
2019-06-01T06:16:27.734Z,6.90
2019-06-01T06:18:58.922Z,6.97
2019-06-01T06:21:29.121Z,6.60
2019-06-01T06:23:59.345Z,7.17
2019-06-01T06:26:30.076Z,6.87
2019-06-01T06:29:01.137Z,7.63
2019-06-01T06:31:31.725Z,7.20
2019-06-01T06:34:02.009Z,7.27
2019-06-01T06:36:32.184Z,6.83
2019-06-01T06:39:04.717Z,7.10
2019-06-01T06:41:34.474Z,7.30
2019-06-01T06:44:05.359Z,6.03
2019-06-01T06:46:35.615Z,6.50
2019-06-01T06:49:09.275Z,7.30
2019-06-01T06:51:37.947Z,7.20
2019-06-01T06:54:08.159Z,6.70
2019-06-01T06:56:38.415Z,6.73
2019-06-01T06:59:11.646Z,6.77
2019-06-01T07:01:40.957Z,6.23
2019-06-01T07:04:13.000Z,5.80
2019-06-01T07:06:43.552Z,6.23
2019-06-01T07:09:14.052Z,6.30
2019-06-01T07:11:44.730Z,5.63
2019-06-01T07:14:15.241Z,5.40
2019-06-01T07:16:45.851Z,6.10
2019-06-01T07:19:16.069Z,7.00
2019-06-01T07:21:46.380Z,6.17
2019-06-01T07:24:16.678Z,5.90
2019-06-01T07:26:46.921Z,6.40
2019-06-01T07:29:17.938Z,6.70
2019-06-01T07:31:48.537Z,6.00
2019-06-01T07:34:30.672Z,5.60
2019-06-01T07:36:50.797Z,6.17
2019-06-01T07:39:22.633Z,5.93
2019-06-01T07:41:52.992Z,6.43
2019-06-01T07:44:23.278Z,6.23
2019-06-01T07:46:53.487Z,6.30
2019-06-01T07:49:24.974Z,5.40
2019-06-01T07:51:55.518Z,6.87
2019-06-01T07:54:26.381Z,6.97
2019-06-01T07:56:56.724Z,6.03
2019-06-01T07:59:28.319Z,6.30
2019-06-01T08:01:58.749Z,6.53
2019-06-01T08:04:31.749Z,7.43
2019-06-01T08:07:02.779Z,6.67
2019-06-01T08:09:33.337Z,6.90
2019-06-01T08:12:03.697Z,7.03
2019-06-01T08:14:34.397Z,6.43
2019-06-01T08:17:04.821Z,7.03
2019-06-01T08:19:35.160Z,6.67
2019-06-01T08:22:06.001Z,6.22
2019-06-01T08:24:37.248Z,7.07
2019-06-01T08:27:07.812Z,6.45
2019-06-01T08:29:39.621Z,6.83
2019-06-01T08:32:10.534Z,6.83
2019-06-01T08:34:41.455Z,6.28
2019-06-01T08:37:11.691Z,6.83
2019-06-01T08:39:41.983Z,7.13
2019-06-01T08:42:12.493Z,6.90
2019-06-01T08:44:43.162Z,6.90
2019-06-01T08:47:13.868Z,6.63
2019-06-01T08:49:48.561Z,6.00
2019-06-01T08:52:18.918Z,6.43
2019-06-01T08:54:49.177Z,7.20
2019-06-01T08:57:19.470Z,6.80
2019-06-01T08:59:50.067Z,6.62
2019-06-01T09:02:20.328Z,6.93
2019-06-01T09:04:50.638Z,6.62
2019-06-01T09:07:20.823Z,6.08
2019-06-01T09:09:52.748Z,7.08
2019-06-01T09:12:23.302Z,7.20
2019-06-01T09:14:53.531Z,6.15
2019-06-01T09:17:25.270Z,5.90
2019-06-01T09:19:55.755Z,6.72
2019-06-01T09:22:27.530Z,6.20
2019-06-01T09:24:57.889Z,6.90
2019-06-01T09:27:28.103Z,6.17
2019-06-01T09:29:58.407Z,6.55
2019-06-01T09:32:29.952Z,5.30
2019-06-01T09:35:00.751Z,6.25
2019-06-01T09:37:32.506Z,5.50
2019-06-01T09:40:02.894Z,5.33
2019-06-01T09:42:33.427Z,5.58
2019-06-01T09:45:05.530Z,5.60
2019-06-01T09:47:35.793Z,5.50
2019-06-01T09:50:06.971Z,5.95
2019-06-01T09:52:37.722Z,5.87
2019-06-01T09:55:08.951Z,5.65
2019-06-01T09:57:40.239Z,5.60
2019-06-01T10:00:12.022Z,5.67
2019-06-01T10:02:42.271Z,5.20
2019-06-01T10:05:13.172Z,5.72
2019-06-01T10:07:43.487Z,5.12
2019-06-01T10:10:13.801Z,4.70
2019-06-01T10:12:44.083Z,4.83
2019-06-01T10:15:14.682Z,4.87
2019-06-01T10:17:45.169Z,5.03
2019-06-01T10:20:16.129Z,4.67
2019-06-01T10:22:46.438Z,5.00
2019-06-01T10:25:18.316Z,5.75
2019-06-01T10:27:48.593Z,4.08
2019-06-01T10:30:18.893Z,3.47
2019-06-01T10:32:49.480Z,3.08
2019-06-01T10:35:19.913Z,3.60
2019-06-01T10:37:50.643Z,2.95
2019-06-01T10:40:20.912Z,2.95
2019-06-01T10:42:51.198Z,2.65
2019-06-01T10:45:21.381Z,2.62
2019-06-01T10:47:51.633Z,2.55
2019-06-01T10:50:21.871Z,2.65
2019-06-01T10:52:52.097Z,2.92
2019-06-01T10:55:22.476Z,2.60
2019-06-01T10:57:52.684Z,3.12
2019-06-01T11:00:37.598Z,2.50
2019-06-01T11:02:55.929Z,2.70
2019-06-01T11:05:26.160Z,3.12
2019-06-01T11:07:56.427Z,2.90
2019-06-01T11:10:26.663Z,2.00
2019-06-01T11:12:56.853Z,2.08
2019-06-01T11:15:27.448Z,2.15
2019-06-01T11:17:58.723Z,2.10
2019-06-01T11:20:28.949Z,2.40
2019-06-01T11:22:59.213Z,2.17
2019-06-01T11:25:29.425Z,2.40
2019-06-01T11:27:59.701Z,2.72
2019-06-01T11:30:29.920Z,2.70
2019-06-01T11:33:01.244Z,2.72
2019-06-01T11:35:31.538Z,2.12
2019-06-01T11:38:02.179Z,2.02
2019-06-01T11:40:32.506Z,2.00
2019-06-01T11:43:03.046Z,2.25
2019-06-01T11:45:34.784Z,2.33
2019-06-01T11:48:05.737Z,1.95
2019-06-01T11:50:36.963Z,1.92
2019-06-01T11:53:07.748Z,2.20
2019-06-01T11:55:39.119Z,1.70
2019-06-01T11:58:09.898Z,2.30
2019-06-01T12:00:41.472Z,1.82
2019-06-01T12:03:11.826Z,1.80
2019-06-01T12:05:42.214Z,1.72
2019-06-01T12:08:12.607Z,2.47
2019-06-01T12:10:43.288Z,1.95
2019-06-01T12:13:13.496Z,2.10
2019-06-01T12:15:44.414Z,1.75
2019-06-01T12:18:14.795Z,1.65
2019-06-01T12:20:45.493Z,1.60
2019-06-01T12:23:16.462Z,1.82
2019-06-01T12:25:46.766Z,1.57
2019-06-01T12:28:17.061Z,1.70
2019-06-01T12:30:47.910Z,1.80
2019-06-01T12:33:18.273Z,1.50
2019-06-01T12:35:48.798Z,1.72
2019-06-01T12:38:18.999Z,1.67
2019-06-01T12:40:49.249Z,1.87
2019-06-01T12:43:19.777Z,2.00
2019-06-01T12:46:05.464Z,2.20
2019-06-01T12:48:23.121Z,2.25
2019-06-01T12:50:53.336Z,2.00
2019-06-01T12:53:23.908Z,1.70
2019-06-01T12:55:54.126Z,1.52
2019-06-01T12:58:24.669Z,1.60
2019-06-01T13:00:55.231Z,1.70
2019-06-01T13:03:25.522Z,1.80
2019-06-01T13:05:56.494Z,2.52
2019-06-01T13:08:26.692Z,2.20
2019-06-01T13:10:56.892Z,1.85
2019-06-01T13:13:27.096Z,2.00
2019-06-01T13:15:57.300Z,1.60
2019-06-01T13:18:27.903Z,1.80
2019-06-01T13:20:58.239Z,1.32
2019-06-01T13:23:28.770Z,1.50
2019-06-01T13:26:00.039Z,1.70
2019-06-01T13:28:38.085Z,1.82
2019-06-01T13:31:03.600Z,1.57
2019-06-01T13:33:34.174Z,1.80
2019-06-01T13:36:04.561Z,1.50
2019-06-01T13:38:34.847Z,1.75
2019-06-01T13:41:05.372Z,1.32
2019-06-01T13:43:35.590Z,1.50
2019-06-01T13:46:06.770Z,1.65
2019-06-01T13:48:37.092Z,1.70
2019-06-01T13:51:07.306Z,1.60
2019-06-01T13:53:37.495Z,1.22
2019-06-01T13:56:07.768Z,1.30
2019-06-01T13:58:37.962Z,1.45
2019-06-01T14:01:08.512Z,1.20
2019-06-01T14:03:39.736Z,1.60
2019-06-01T14:06:09.984Z,1.57
2019-06-01T14:08:40.192Z,1.60
2019-06-01T14:11:10.827Z,1.65
2019-06-01T14:13:41.021Z,1.42
2019-06-01T14:16:11.245Z,1.30
2019-06-01T14:18:41.806Z,1.52
2019-06-01T14:21:12.045Z,1.27
2019-06-01T14:23:42.284Z,1.22
2019-06-01T14:26:12.445Z,1.50
2019-06-01T14:28:42.751Z,1.50
2019-06-01T14:31:13.014Z,1.47
2019-06-01T14:33:43.317Z,1.47
2019-06-01T14:36:13.778Z,1.30
2019-06-01T14:38:47.651Z,1.50
2019-06-01T14:41:15.832Z,1.52
2019-06-01T14:43:46.927Z,1.90
2019-06-01T14:46:17.287Z,1.50
2019-06-01T14:48:47.540Z,1.67
2019-06-01T14:51:17.796Z,1.50
2019-06-01T14:53:47.959Z,1.47
2019-06-01T14:56:18.284Z,1.67
2019-06-01T14:58:49.893Z,1.42
2019-06-01T15:01:31.808Z,1.57
2019-06-01T15:03:52.461Z,1.80
2019-06-01T15:06:22.714Z,1.40
2019-06-01T15:09:13.117Z,1.60
2019-06-01T15:11:24.927Z,2.27
2019-06-01T15:13:56.432Z,1.60
2019-06-01T15:16:27.241Z,1.60
2019-06-01T15:18:57.714Z,1.47
2019-06-01T15:21:28.023Z,1.40
2019-06-01T15:23:58.777Z,1.40
2019-06-01T15:26:29.559Z,1.52
2019-06-01T15:29:00.247Z,1.47
2019-06-01T15:31:32.091Z,1.67
2019-06-01T15:34:02.444Z,1.72
2019-06-01T15:36:32.669Z,2.25
2019-06-01T15:39:02.986Z,1.50
2019-06-01T15:41:33.835Z,1.50
2019-06-01T15:44:04.067Z,1.42
2019-06-01T15:46:34.784Z,1.60
2019-06-01T15:49:05.416Z,1.80
2019-06-01T15:51:35.651Z,1.60
2019-06-01T15:54:05.875Z,1.52
2019-06-01T15:56:36.119Z,1.60
2019-06-01T15:59:06.712Z,1.30
2019-06-01T16:01:36.993Z,1.27
2019-06-01T16:04:07.569Z,1.95
2019-06-01T16:06:37.779Z,2.30
2019-06-01T16:09:08.317Z,1.80
2019-06-01T16:11:38.664Z,1.40
2019-06-01T16:14:10.223Z,1.85
2019-06-01T16:16:40.413Z,1.30
2019-06-01T16:19:10.648Z,1.30
2019-06-01T16:21:42.714Z,1.35
2019-06-01T16:24:12.910Z,6.37
2019-06-01T16:26:43.084Z,4.72
2019-06-01T16:29:13.598Z,1.52
2019-06-01T16:31:43.915Z,1.60
2019-06-01T16:34:14.433Z,1.45
2019-06-01T16:36:45.110Z,1.57
2019-06-01T16:39:15.286Z,2.05
2019-06-01T16:41:45.845Z,1.75
2019-06-01T16:44:19.582Z,1.30
2019-06-01T16:46:48.038Z,1.47
2019-06-01T16:49:18.231Z,1.55
2019-06-01T16:51:53.226Z,1.77
2019-06-01T16:54:23.856Z,1.40
2019-06-01T16:56:54.320Z,1.52
2019-06-01T16:59:24.588Z,1.77
2019-06-01T17:01:54.765Z,2.90
2019-06-01T17:04:25.011Z,1.67
2019-06-01T17:06:56.490Z,1.70
2019-06-01T17:09:26.882Z,2.42
2019-06-01T17:11:57.177Z,3.42
2019-06-01T17:14:27.363Z,2.42
2019-06-01T17:16:58.872Z,2.40
2019-06-01T17:19:29.615Z,1.40
2019-06-01T17:21:59.923Z,2.62
2019-06-01T17:24:30.105Z,2.95
2019-06-01T17:27:00.363Z,5.15
2019-06-01T17:29:30.616Z,14.03
2019-06-01T17:32:19.057Z,3.15
2019-06-01T17:34:32.826Z,2.90
2019-06-01T17:37:04.553Z,1.85
2019-06-01T17:39:35.016Z,1.75
2019-06-01T17:42:06.435Z,4.00
2019-06-01T17:44:36.690Z,9.15
2019-06-01T17:47:08.031Z,2.08
2019-06-01T17:49:38.448Z,2.50
2019-06-01T17:52:09.737Z,1.95
2019-06-01T17:54:41.980Z,1.40
2019-06-01T17:57:12.214Z,1.30
2019-06-01T17:59:42.438Z,1.82
2019-06-01T18:02:12.749Z,1.65
2019-06-01T18:04:43.089Z,1.30
2019-06-01T18:07:13.392Z,1.42
2019-06-01T18:09:44.389Z,1.50
2019-06-01T18:12:15.500Z,1.50
2019-06-01T18:14:46.349Z,1.92
2019-06-01T18:17:16.609Z,1.80
2019-06-01T18:19:46.788Z,1.65
2019-06-01T18:22:17.078Z,1.82
2019-06-01T18:24:47.762Z,1.92
2019-06-01T18:27:17.990Z,2.00
2019-06-01T18:29:49.639Z,2.00
2019-06-01T18:32:20.067Z,1.65
2019-06-01T18:34:50.213Z,2.60
2019-06-01T18:37:20.385Z,3.08
2019-06-01T18:39:50.660Z,3.90
2019-06-01T18:42:24.371Z,3.37
2019-06-01T18:44:54.701Z,3.42
2019-06-01T18:47:32.315Z,4.47
2019-06-01T18:49:57.844Z,3.85
2019-06-01T18:52:28.104Z,4.67
2019-06-01T18:54:58.749Z,5.33
2019-06-01T18:57:29.769Z,4.60
2019-06-01T19:00:00.030Z,4.80
2019-06-01T19:02:30.258Z,5.95
2019-06-01T19:05:00.474Z,4.50
2019-06-01T19:07:30.735Z,4.83
2019-06-01T19:10:01.293Z,4.00
2019-06-01T19:12:31.589Z,5.47
2019-06-01T19:15:01.775Z,4.75
2019-06-01T19:17:32.383Z,5.60
2019-06-01T19:20:02.651Z,5.35
2019-06-01T19:22:32.923Z,4.60
2019-06-01T19:25:03.071Z,4.15
2019-06-01T19:27:33.606Z,4.60
2019-06-01T19:30:04.621Z,3.92
2019-06-01T19:32:34.937Z,4.53
2019-06-01T19:35:07.524Z,4.80
2019-06-01T19:37:39.020Z,5.45
2019-06-01T19:40:09.457Z,5.80
2019-06-01T19:42:39.842Z,4.58
2019-06-01T19:45:22.591Z,5.47
2019-06-01T19:47:42.276Z,4.25
2019-06-01T19:50:14.221Z,4.78
2019-06-01T19:52:44.580Z,4.70
2019-06-01T19:55:14.988Z,5.90
2019-06-01T19:57:45.310Z,6.58
2019-06-01T20:00:16.363Z,6.80
2019-06-01T20:02:46.736Z,6.67
2019-06-01T20:05:17.264Z,6.92
2019-06-01T20:07:47.559Z,6.80
2019-06-01T20:10:18.524Z,7.62
2019-06-01T20:12:49.310Z,6.97
2019-06-01T20:15:19.653Z,7.60
2019-06-01T20:17:50.051Z,6.50
2019-06-01T20:20:20.798Z,7.42
2019-06-01T20:22:51.122Z,7.12
2019-06-01T20:25:21.819Z,7.22
2019-06-01T20:27:53.292Z,31.75
2019-06-01T20:30:24.013Z,8.03
2019-06-01T20:32:54.372Z,9.13
2019-06-01T20:35:24.798Z,7.55
2019-06-01T20:37:55.093Z,7.22
2019-06-01T20:40:25.229Z,7.80
2019-06-01T20:42:55.597Z,7.80
2019-06-01T20:45:26.531Z,7.33
2019-06-01T20:47:56.838Z,8.75
2019-06-01T20:50:27.338Z,8.05
2019-06-01T20:52:57.977Z,7.87
2019-06-01T20:55:28.165Z,8.85
2019-06-01T20:57:58.321Z,7.47
2019-06-01T21:00:31.705Z,7.92
2019-06-01T21:03:00.437Z,7.22
2019-06-01T21:05:30.601Z,8.73
2019-06-01T21:08:00.826Z,7.87
2019-06-01T21:10:31.540Z,8.55
2019-06-01T21:13:01.789Z,7.78
2019-06-01T21:15:31.911Z,7.87
2019-06-01T21:18:02.273Z,8.00
2019-06-01T21:20:32.871Z,7.72
2019-06-01T21:23:03.160Z,9.25
2019-06-01T21:25:33.421Z,9.25
2019-06-01T21:28:03.642Z,9.25
2019-06-01T21:30:33.914Z,8.95
2019-06-01T21:33:04.158Z,9.08
2019-06-01T21:35:34.410Z,9.23
2019-06-01T21:38:04.630Z,10.05
2019-06-01T21:40:34.862Z,9.93
2019-06-01T21:43:23.075Z,10.18
2019-06-01T21:45:37.366Z,9.28
2019-06-01T21:48:07.577Z,9.13
2019-06-01T21:50:38.122Z,8.68
2019-06-01T21:53:08.374Z,9.43
2019-06-01T21:55:38.564Z,9.85
2019-06-01T21:58:08.800Z,9.50
2019-06-01T22:00:40.300Z,9.23
2019-06-01T22:03:10.976Z,9.38
2019-06-01T22:05:41.333Z,8.50
2019-06-01T22:08:11.708Z,8.43
2019-06-01T22:10:42.380Z,8.88
2019-06-01T22:13:18.768Z,8.83
2019-06-01T22:15:44.857Z,8.85
2019-06-01T22:18:15.072Z,8.95
2019-06-01T22:20:45.336Z,8.58
2019-06-01T22:23:15.916Z,8.35
2019-06-01T22:25:46.113Z,8.60
2019-06-01T22:28:16.326Z,8.65
2019-06-01T22:30:47.576Z,7.87
2019-06-01T22:33:20.120Z,7.47
2019-06-01T22:35:49.661Z,6.28
2019-06-01T22:38:19.849Z,6.62
2019-06-01T22:40:50.086Z,6.35
2019-06-01T22:43:36.815Z,5.85
2019-06-01T22:45:52.248Z,6.22
2019-06-01T22:48:22.802Z,6.28
2019-06-01T22:50:53.155Z,5.53
2019-06-01T22:53:24.105Z,5.13
2019-06-01T22:55:55.271Z,5.60
2019-06-01T22:58:27.390Z,5.65
2019-06-01T23:00:57.779Z,6.47
2019-06-01T23:03:28.171Z,6.47
2019-06-01T23:05:58.425Z,5.50
2019-06-01T23:08:29.481Z,5.37
2019-06-01T23:11:00.833Z,5.23
2019-06-01T23:13:32.140Z,5.22
2019-06-01T23:16:02.597Z,5.17
2019-06-01T23:18:33.400Z,5.62
2019-06-01T23:21:03.581Z,4.97
2019-06-01T23:23:33.852Z,5.12
2019-06-01T23:26:04.021Z,5.37
2019-06-01T23:28:38.439Z,5.40
2019-06-01T23:31:07.810Z,5.20
2019-06-01T23:33:38.088Z,4.72
2019-06-01T23:36:08.169Z,4.80
2019-06-01T23:38:38.373Z,5.70
2019-06-01T23:41:08.531Z,5.05
2019-06-01T23:43:38.760Z,4.90
2019-06-01T23:46:08.962Z,5.17
2019-06-01T23:48:39.464Z,5.12
2019-06-01T23:51:10.009Z,5.35
2019-06-01T23:53:40.289Z,4.95
2019-06-01T23:56:10.479Z,4.92
2019-06-01T23:58:40.953Z,4.83
